createdAt,value
2017-06-08T00:00:16.026Z,14.9
2017-06-08T00:01:18.680Z,14.9
2017-06-08T00:02:21.570Z,14.8
2017-06-08T00:03:23.955Z,14.7
2017-06-08T00:04:27.674Z,14.7
2017-06-08T00:05:29.560Z,14.8
2017-06-08T00:06:32.444Z,14.8
2017-06-08T00:07:34.839Z,14.7
2017-06-08T00:08:37.729Z,14.8
2017-06-08T00:09:40.747Z,14.8
2017-06-08T00:10:43.131Z,14.8
2017-06-08T00:11:46.598Z,14.8
2017-06-08T00:12:48.364Z,14.8
2017-06-08T00:13:51.258Z,14.8
2017-06-08T00:15:56.856Z,14.7
2017-06-08T00:18:02.156Z,14.6
2017-06-08T00:20:07.989Z,14.6
2017-06-08T00:21:10.631Z,14.6
2017-06-08T00:22:12.896Z,14.6
2017-06-08T00:23:15.782Z,14.6
2017-06-08T00:25:21.081Z,14.6
2017-06-08T00:26:24.264Z,14.5
2017-06-08T00:27:26.644Z,14.6
2017-06-08T00:28:30.116Z,14.6
2017-06-08T00:29:32.010Z,14.5
2017-06-08T00:31:38.065Z,14.5
2017-06-08T00:33:43.126Z,14.5
2017-06-08T00:34:45.899Z,14.5
2017-06-08T00:35:48.668Z,14.5
2017-06-08T00:36:51.184Z,14.5
2017-06-08T00:37:54.075Z,14.5
2017-06-08T00:38:56.963Z,14.6
2017-06-08T00:39:59.344Z,14.6
2017-06-08T00:41:02.109Z,14.6
2017-06-08T00:42:05.176Z,14.5
2017-06-08T00:43:07.436Z,14.5
2017-06-08T00:44:10.206Z,14.4
2017-06-08T00:45:12.973Z,14.4
2017-06-08T00:46:15.863Z,14.4
2017-06-08T00:47:19.056Z,14.4
2017-06-08T00:49:23.845Z,14.5
2017-06-08T00:50:26.730Z,14.4
2017-06-08T00:51:29.191Z,14.5
2017-06-08T00:53:35.131Z,14.5
2017-06-08T00:54:37.521Z,14.5
2017-06-08T00:55:40.412Z,14.5
2017-06-08T00:56:43.756Z,14.5
2017-06-08T00:58:48.802Z,14.5
2017-06-08T00:59:51.188Z,14.3
2017-06-08T01:01:56.483Z,14.3
2017-06-08T01:04:02.540Z,14.1
2017-06-08T01:05:04.934Z,14.1
2017-06-08T01:06:07.321Z,14.2
2017-06-08T01:07:10.211Z,14.2
2017-06-08T01:08:13.669Z,14.2
2017-06-08T01:09:15.805Z,14.2
2017-06-08T01:10:18.221Z,14.1
2017-06-08T01:11:20.873Z,14.1
2017-06-08T01:12:23.760Z,14.1
2017-06-08T01:14:29.361Z,14.1
2017-06-08T01:15:31.747Z,14.1
2017-06-08T01:16:34.644Z,14.1
2017-06-08T01:17:37.526Z,14
2017-06-08T01:18:39.795Z,14
2017-06-08T01:19:42.987Z,14
2017-06-08T01:20:45.377Z,14
2017-06-08T01:21:48.154Z,14
2017-06-08T01:22:51.051Z,14
2017-06-08T01:23:53.438Z,14
2017-06-08T01:24:56.576Z,14
2017-06-08T01:25:58.957Z,14
2017-06-08T01:27:01.853Z,14
2017-06-08T01:28:04.737Z,14
2017-06-08T01:29:07.131Z,14
2017-06-08T01:31:12.728Z,14
2017-06-08T01:32:15.118Z,13.9
2017-06-08T01:33:18.076Z,14
2017-06-08T01:34:20.966Z,14
2017-06-08T01:35:23.356Z,13.9
2017-06-08T01:36:26.491Z,13.9
2017-06-08T01:37:28.878Z,14
2017-06-08T01:38:31.766Z,14
2017-06-08T01:39:34.158Z,14
2017-06-08T01:40:37.614Z,14.1
2017-06-08T01:41:39.753Z,14.1
2017-06-08T01:43:44.928Z,14
2017-06-08T01:44:47.809Z,14.1
2017-06-08T01:45:50.575Z,14.1
2017-06-08T01:47:56.177Z,14
2017-06-08T01:48:58.445Z,14
2017-06-08T01:50:01.214Z,14
2017-06-08T01:51:04.104Z,13.9
2017-06-08T01:52:07.001Z,13.9
2017-06-08T01:53:10.068Z,14
2017-06-08T01:54:12.458Z,14
2017-06-08T01:55:14.845Z,14
2017-06-08T01:56:17.731Z,14
2017-06-08T01:57:20.616Z,14
2017-06-08T01:58:23.249Z,14
2017-06-08T02:00:28.425Z,14.1
2017-06-08T02:01:31.312Z,14.1
2017-06-08T02:02:33.696Z,14.1
2017-06-08T02:03:36.886Z,14.1
2017-06-08T02:05:42.118Z,14.1
2017-06-08T02:06:44.507Z,14.1
2017-06-08T02:08:50.560Z,14
2017-06-08T02:09:52.945Z,14
2017-06-08T02:10:55.336Z,14
2017-06-08T02:13:01.149Z,14
2017-06-08T02:14:03.783Z,14
2017-06-08T02:15:06.170Z,14
2017-06-08T02:18:14.258Z,14
2017-06-08T02:20:20.306Z,14
2017-06-08T02:21:23.332Z,14
2017-06-08T02:22:25.217Z,14
2017-06-08T02:23:28.105Z,14
2017-06-08T02:24:30.491Z,14
2017-06-08T02:26:36.541Z,13.8
2017-06-08T02:27:39.510Z,13.8
2017-06-08T02:30:46.584Z,13.8
2017-06-08T02:32:52.691Z,13.8
2017-06-08T02:33:55.081Z,13.9
2017-06-08T02:34:57.539Z,13.9
2017-06-08T02:36:00.430Z,13.9
2017-06-08T02:38:06.053Z,14
2017-06-08T02:39:08.432Z,14
2017-06-08T02:40:11.322Z,14
2017-06-08T02:41:14.208Z,14
2017-06-08T02:43:19.756Z,14
2017-06-08T02:46:27.460Z,14
2017-06-08T02:47:30.349Z,14
2017-06-08T02:48:32.984Z,14
2017-06-08T02:49:35.873Z,14
2017-06-08T02:50:38.254Z,14
2017-06-08T02:51:41.140Z,14
2017-06-08T02:52:43.787Z,14
2017-06-08T02:53:46.922Z,14
2017-06-08T02:54:49.304Z,14
2017-06-08T02:55:51.684Z,14
2017-06-08T02:56:54.573Z,14
2017-06-08T02:57:57.346Z,14
2017-06-08T03:00:02.775Z,14.1
2017-06-08T03:02:07.830Z,14.1
2017-06-08T03:03:10.722Z,14.1
2017-06-08T03:04:13.490Z,14.1
2017-06-08T03:06:18.966Z,14
2017-06-08T03:11:32.785Z,14
2017-06-08T03:12:35.169Z,14
2017-06-08T03:14:40.462Z,13.8
2017-06-08T03:15:43.231Z,13.8
2017-06-08T03:16:46.248Z,13.7
2017-06-08T03:19:53.949Z,13.7
2017-06-08T03:21:59.997Z,13.7
2017-06-08T03:23:02.383Z,13.6
2017-06-08T03:24:04.644Z,13.6
2017-06-08T03:25:07.528Z,13.7
2017-06-08T03:26:10.417Z,13.6
2017-06-08T03:27:13.438Z,13.6
2017-06-08T03:28:15.704Z,13.6
2017-06-08T03:30:20.877Z,13.6
2017-06-08T03:31:23.765Z,13.6
2017-06-08T03:32:26.905Z,13.6
2017-06-08T03:33:29.179Z,13.7
2017-06-08T03:35:34.983Z,13.7
2017-06-08T03:36:37.364Z,13.7
2017-06-08T03:37:40.506Z,13.7
2017-06-08T03:38:42.890Z,13.7
2017-06-08T03:39:45.776Z,13.7
2017-06-08T03:40:48.040Z,13.6
2017-06-08T03:41:50.931Z,13.7
2017-06-08T03:42:53.994Z,13.7
2017-06-08T03:43:56.252Z,13.7
2017-06-08T03:44:59.134Z,13.7
2017-06-08T03:46:02.020Z,13.8
2017-06-08T03:48:07.568Z,13.8
2017-06-08T03:49:09.957Z,13.8
2017-06-08T03:50:12.839Z,13.8
2017-06-08T03:51:15.224Z,13.8
2017-06-08T03:52:18.116Z,13.8
2017-06-08T03:55:26.577Z,13.8
2017-06-08T03:56:28.961Z,13.8
2017-06-08T03:57:31.849Z,13.8
2017-06-08T03:58:34.230Z,13.9
2017-06-08T04:00:40.278Z,13.8
2017-06-08T04:01:42.656Z,13.9
2017-06-08T04:05:53.518Z,14
2017-06-08T04:06:55.962Z,14
2017-06-08T04:07:58.851Z,14
2017-06-08T04:09:01.618Z,14.1
2017-06-08T04:12:10.074Z,14.2
2017-06-08T04:13:12.469Z,14.2
2017-06-08T04:15:17.764Z,14.3
2017-06-08T04:17:23.809Z,14.4
2017-06-08T04:19:28.980Z,14.5
2017-06-08T04:21:34.316Z,14.5
2017-06-08T04:23:40.419Z,14.6
2017-06-08T04:24:42.805Z,14.6
2017-06-08T04:26:47.978Z,14.6
2017-06-08T04:28:53.908Z,14.7
2017-06-08T04:29:56.285Z,14.7
2017-06-08T04:30:59.173Z,14.7
2017-06-08T04:32:01.830Z,14.7
2017-06-08T04:33:04.597Z,14.7
2017-06-08T04:36:12.937Z,14.8
2017-06-08T04:38:18.617Z,14.8
2017-06-08T04:39:21.960Z,14.8
2017-06-08T04:40:24.232Z,14.8
2017-06-08T04:41:27.373Z,14.8
2017-06-08T04:42:29.758Z,14.8
2017-06-08T04:43:32.644Z,14.8
2017-06-08T04:44:35.027Z,14.8
2017-06-08T04:46:41.073Z,14.8
2017-06-08T04:47:43.452Z,14.8
2017-06-08T04:50:51.538Z,14.8
2017-06-08T04:51:54.680Z,14.8
2017-06-08T04:55:02.886Z,14.8
2017-06-08T04:58:11.215Z,15
2017-06-08T04:59:13.980Z,15
2017-06-08T05:00:16.868Z,15
2017-06-08T05:01:19.755Z,15
2017-06-08T05:02:22.646Z,15
2017-06-08T05:03:25.282Z,15
2017-06-08T05:04:28.165Z,15
2017-06-08T05:05:30.842Z,15
2017-06-08T05:06:33.584Z,15.1
2017-06-08T05:07:36.372Z,15.1
2017-06-08T05:08:39.506Z,15.2
2017-06-08T05:09:41.946Z,15.3
2017-06-08T05:10:44.365Z,15.3
2017-06-08T05:11:47.501Z,15.4
2017-06-08T05:12:50.628Z,15.5
2017-06-08T05:13:53.499Z,15.5
2017-06-08T05:14:56.043Z,15.5
2017-06-08T05:15:58.930Z,15.5
2017-06-08T05:17:01.315Z,15.5
2017-06-08T05:18:04.200Z,15.5
2017-06-08T05:19:07.337Z,15.5
2017-06-08T05:20:09.729Z,15.5
2017-06-08T05:22:15.288Z,15.5
2017-06-08T05:24:21.388Z,15.5
2017-06-08T05:25:23.776Z,15.5
2017-06-08T05:26:26.667Z,15.5
2017-06-08T05:28:32.475Z,15.5
2017-06-08T05:29:35.614Z,15.5
2017-06-08T05:31:40.907Z,15.5
2017-06-08T05:32:43.793Z,15.5
2017-06-08T05:33:46.061Z,15.5
2017-06-08T05:35:52.045Z,15.4
2017-06-08T05:40:03.051Z,15.5
2017-06-08T05:42:09.684Z,15.5
2017-06-08T05:43:11.565Z,15.5
2017-06-08T05:44:14.451Z,15.5
2017-06-08T05:45:17.255Z,15.5
2017-06-08T05:47:23.353Z,15.5
2017-06-08T05:48:25.741Z,15.5
2017-06-08T05:49:28.639Z,15.5
2017-06-08T05:51:33.937Z,15.5
2017-06-08T05:52:37.071Z,15.5
2017-06-08T05:54:42.362Z,15.5
2017-06-08T05:55:45.128Z,15.6
2017-06-08T05:59:57.007Z,15.6
2017-06-08T06:00:59.388Z,15.7
2017-06-08T06:02:02.198Z,15.8
2017-06-08T06:03:04.968Z,15.7
2017-06-08T06:04:07.735Z,15.8
2017-06-08T06:06:13.789Z,15.8
2017-06-08T06:07:16.058Z,15.9
2017-06-08T06:08:18.825Z,15.9
2017-06-08T06:12:30.698Z,15.9
2017-06-08T06:13:33.077Z,15.9
2017-06-08T06:14:35.967Z,15.9
2017-06-08T06:16:41.766Z,16
2017-06-08T06:17:44.451Z,16
2017-06-08T06:18:47.345Z,16.1
2017-06-08T06:19:50.232Z,16.1
2017-06-08T06:20:52.615Z,16.1
2017-06-08T06:21:55.503Z,16.1
2017-06-08T06:22:58.641Z,16.1
2017-06-08T06:24:01.405Z,16.2
2017-06-08T06:26:06.700Z,16.2
2017-06-08T06:28:12.799Z,16.1
2017-06-08T06:29:15.184Z,16.2
2017-06-08T06:30:18.076Z,16.2
2017-06-08T06:31:20.966Z,16.2
2017-06-08T06:32:23.848Z,16.2
2017-06-08T06:33:26.986Z,16.2
2017-06-08T06:34:29.165Z,16.2
2017-06-08T06:35:32.671Z,16.2
2017-06-08T06:36:35.056Z,16.2
2017-06-08T06:37:37.946Z,16.3
2017-06-08T06:38:41.658Z,16.3
2017-06-08T06:39:43.539Z,16.2
2017-06-08T06:40:46.435Z,16.3
2017-06-08T06:41:49.202Z,16.3
2017-06-08T06:42:52.088Z,16.3
2017-06-08T06:46:00.686Z,16.5
2017-06-08T06:47:03.571Z,16.5
2017-06-08T06:48:06.341Z,16.5
2017-06-08T06:49:09.113Z,16.5
2017-06-08T06:50:11.997Z,16.4
2017-06-08T06:51:15.139Z,16.4
2017-06-08T06:53:20.318Z,16.4
2017-06-08T06:54:23.210Z,16.4
2017-06-08T06:56:29.305Z,16.4
2017-06-08T06:57:31.685Z,16.4
2017-06-08T06:58:34.569Z,16.5
2017-06-08T06:59:37.466Z,16.5
2017-06-08T07:01:43.513Z,16.5
2017-06-08T07:02:45.897Z,16.5
2017-06-08T07:03:48.664Z,16.5
2017-06-08T07:04:51.546Z,16.5
2017-06-08T07:05:54.315Z,16.5
2017-06-08T07:06:57.381Z,16.5
2017-06-08T07:08:00.271Z,16.5
2017-06-08T07:09:02.656Z,16.5
2017-06-08T07:10:05.432Z,16.5
2017-06-08T07:11:08.329Z,16.5
2017-06-08T07:12:11.521Z,16.5
2017-06-08T07:14:17.201Z,16.5
2017-06-08T07:15:20.088Z,16.5
2017-06-08T07:16:22.471Z,16.6
2017-06-08T07:17:25.611Z,16.6
2017-06-08T07:18:28.499Z,16.6
2017-06-08T07:20:33.794Z,16.6
2017-06-08T07:24:45.677Z,16.6
2017-06-08T07:25:48.065Z,16.6
2017-06-08T07:27:53.866Z,16.6
2017-06-08T07:29:59.920Z,16.7
2017-06-08T07:31:02.314Z,16.7
2017-06-08T07:32:05.200Z,16.7
2017-06-08T07:33:08.083Z,16.6
2017-06-08T07:34:10.973Z,16.6
2017-06-08T07:35:13.993Z,16.6
2017-06-08T07:36:16.380Z,16.6
2017-06-08T07:37:19.269Z,16.7
2017-06-08T07:38:22.152Z,16.7
2017-06-08T07:39:25.044Z,16.7
2017-06-08T07:40:28.187Z,16.8
2017-06-08T07:41:31.153Z,16.8
2017-06-08T07:42:33.418Z,16.8
2017-06-08T07:43:36.308Z,16.8
2017-06-08T07:44:39.192Z,16.9
2017-06-08T07:45:42.378Z,16.9
2017-06-08T07:46:44.643Z,17
2017-06-08T07:48:50.317Z,17
2017-06-08T07:49:53.204Z,17.1
2017-06-08T07:51:59.120Z,17.1
2017-06-08T07:53:02.012Z,17.1
2017-06-08T07:55:07.397Z,17.3
2017-06-08T07:56:10.165Z,17.3
2017-06-08T07:57:13.305Z,17.3
2017-06-08T07:59:19.107Z,17.3
2017-06-08T08:01:24.904Z,17.3
2017-06-08T08:03:30.334Z,17.3
2017-06-08T08:05:36.139Z,17.3
2017-06-08T08:06:39.043Z,17.3
2017-06-08T08:07:41.816Z,17.3
2017-06-08T08:08:44.956Z,17.4
2017-06-08T08:09:47.839Z,17.3
2017-06-08T08:10:50.220Z,17.4
2017-06-08T08:11:53.493Z,17.4
2017-06-08T08:12:56.380Z,17.5
2017-06-08T08:13:59.518Z,17.5
2017-06-08T08:15:01.899Z,17.6
2017-06-08T08:18:10.647Z,17.7
2017-06-08T08:19:13.839Z,17.6
2017-06-08T08:20:16.103Z,17.6
2017-06-08T08:21:18.869Z,17.6
2017-06-08T08:22:21.754Z,17.6
2017-06-08T08:23:24.646Z,17.6
2017-06-08T08:24:27.835Z,17.6
2017-06-08T08:25:30.723Z,17.7
2017-06-08T08:26:33.606Z,17.8
2017-06-08T08:27:36.506Z,18
2017-06-08T08:28:39.402Z,18
2017-06-08T08:29:42.358Z,18
2017-06-08T08:30:44.744Z,18
2017-06-08T08:31:48.239Z,18
2017-06-08T08:32:50.621Z,17.9
2017-06-08T08:33:53.393Z,18
2017-06-08T08:34:56.461Z,18
2017-06-08T08:35:59.110Z,18.1
2017-06-08T08:38:04.909Z,18.1
2017-06-08T08:39:07.796Z,18.1
2017-06-08T08:40:10.935Z,18.1
2017-06-08T08:41:13.828Z,18.3
2017-06-08T08:42:16.713Z,18.3
2017-06-08T08:43:19.477Z,18.3
2017-06-08T08:44:22.241Z,18.4
2017-06-08T08:45:25.435Z,18.4
2017-06-08T08:49:36.561Z,18.4
2017-06-08T08:50:39.698Z,18.4
2017-06-08T08:52:45.375Z,18.4
2017-06-08T08:53:48.265Z,18.3
2017-06-08T08:54:51.153Z,18.4
2017-06-08T08:55:54.292Z,18.5
2017-06-08T08:56:56.939Z,18.6
2017-06-08T08:59:02.744Z,18.6
2017-06-08T09:00:05.631Z,18.6
2017-06-08T09:01:08.698Z,18.7
2017-06-08T09:02:11.730Z,18.7
2017-06-08T09:03:14.380Z,18.7
2017-06-08T09:04:17.276Z,18.7
2017-06-08T09:05:20.195Z,18.8
2017-06-08T09:08:29.038Z,18.7
2017-06-08T09:09:31.809Z,18.7
2017-06-08T09:10:34.696Z,18.7
2017-06-08T09:14:46.586Z,18.7
2017-06-08T09:15:49.475Z,18.7
2017-06-08T09:17:55.161Z,18.7
2017-06-08T09:18:58.053Z,18.7
2017-06-08T09:20:01.073Z,18.8
2017-06-08T09:21:04.046Z,18.9
2017-06-08T09:22:06.932Z,19
2017-06-08T09:23:09.578Z,19.1
2017-06-08T09:24:12.467Z,19
2017-06-08T09:26:18.402Z,19
2017-06-08T09:27:21.300Z,19
2017-06-08T09:29:26.854Z,19
2017-06-08T09:31:33.286Z,19
2017-06-08T09:32:36.176Z,19
2017-06-08T09:33:39.063Z,19
2017-06-08T09:34:41.946Z,19.1
2017-06-08T09:35:44.835Z,19.1
2017-06-08T09:36:47.852Z,19.1
2017-06-08T09:37:50.626Z,19.1
2017-06-08T09:38:53.393Z,19.1
2017-06-08T09:39:56.786Z,19.1
2017-06-08T09:40:59.547Z,19.1
2017-06-08T09:42:02.693Z,19.1
2017-06-08T09:43:05.583Z,19.1
2017-06-08T09:46:14.289Z,19.3
2017-06-08T09:50:26.167Z,19.3
2017-06-08T09:51:29.056Z,19.4
2017-06-08T09:53:34.857Z,19.6
2017-06-08T09:54:37.746Z,19.6
2017-06-08T09:55:40.935Z,19.6
2017-06-08T09:56:43.834Z,19.6
2017-06-08T09:57:46.725Z,19.7
2017-06-08T09:58:49.615Z,19.7
2017-06-08T09:59:52.505Z,19.7
2017-06-08T10:00:55.696Z,19.6
2017-06-08T10:01:58.578Z,19.6
2017-06-08T10:03:01.469Z,19.6
2017-06-08T10:04:04.361Z,19.6
2017-06-08T10:06:10.921Z,19.6
2017-06-08T10:07:13.308Z,19.6
2017-06-08T10:08:16.585Z,19.5
2017-06-08T10:09:19.352Z,19.5
2017-06-08T10:10:22.241Z,19.6
2017-06-08T10:11:25.607Z,19.6
2017-06-08T10:12:28.488Z,19.6
2017-06-08T10:13:31.374Z,19.6
2017-06-08T10:15:37.181Z,19.6
2017-06-08T10:16:40.319Z,19.5
2017-06-08T10:17:43.206Z,19.6
2017-06-08T10:18:46.092Z,19.5
2017-06-08T10:19:48.976Z,19.5
2017-06-08T10:21:55.575Z,19.5
2017-06-08T10:24:00.871Z,19.5
2017-06-08T10:25:03.638Z,19.5
2017-06-08T10:26:07.026Z,19.5
2017-06-08T10:27:10.167Z,19.4
2017-06-08T10:28:12.547Z,19.4
2017-06-08T10:29:16.012Z,19.4
2017-06-08T10:30:18.397Z,19.6
2017-06-08T10:31:21.787Z,19.6
2017-06-08T10:35:33.539Z,19.6
2017-06-08T10:36:36.312Z,19.5
2017-06-08T10:37:39.199Z,19.5
2017-06-08T10:38:41.971Z,19.4
2017-06-08T10:40:48.020Z,19.4
2017-06-08T10:41:50.909Z,19.4
2017-06-08T10:42:53.799Z,19.5
2017-06-08T10:43:56.688Z,19.5
2017-06-08T10:44:59.610Z,19.5
2017-06-08T10:46:02.630Z,19.5
2017-06-08T10:47:05.513Z,19.5
2017-06-08T10:49:11.233Z,19.5
2017-06-08T10:50:14.119Z,19.5
2017-06-08T10:51:17.254Z,19.6
2017-06-08T10:53:23.056Z,19.7
2017-06-08T10:54:25.940Z,19.7
2017-06-08T10:55:28.396Z,19.7
2017-06-08T10:56:32.088Z,19.8
2017-06-08T10:58:37.378Z,19.7
2017-06-08T10:59:40.264Z,19.7
2017-06-08T11:00:43.156Z,19.7
2017-06-08T11:01:46.773Z,19.8
2017-06-08T11:03:52.118Z,19.8
2017-06-08T11:04:54.886Z,19.8
2017-06-08T11:05:57.802Z,19.8
2017-06-08T11:09:06.765Z,19.8
2017-06-08T11:10:09.532Z,19.7
2017-06-08T11:11:12.302Z,19.7
2017-06-08T11:13:18.127Z,19.8
2017-06-08T11:14:21.266Z,19.9
2017-06-08T11:16:27.071Z,19.9
2017-06-08T11:17:29.966Z,19.9
2017-06-08T11:18:32.852Z,19.9
2017-06-08T11:19:35.992Z,19.8
2017-06-08T11:20:38.374Z,19.8
2017-06-08T11:22:44.674Z,19.9
2017-06-08T11:23:47.135Z,19.9
2017-06-08T11:25:53.722Z,20
2017-06-08T11:29:01.930Z,20.1
2017-06-08T11:30:04.819Z,20.3
2017-06-08T11:31:07.837Z,20.3
2017-06-08T11:32:10.726Z,20.3
2017-06-08T11:33:13.612Z,20.3
2017-06-08T11:36:22.630Z,20.5
2017-06-08T11:38:28.429Z,20.5
2017-06-08T11:39:31.322Z,20.4
2017-06-08T11:40:34.210Z,20.4
2017-06-08T11:42:40.352Z,20.3
2017-06-08T11:43:42.734Z,20.3
2017-06-08T11:45:48.917Z,20.3
2017-06-08T11:47:55.021Z,20.3
2017-06-08T11:48:57.406Z,20.3
2017-06-08T11:50:00.297Z,20.3
2017-06-08T11:51:03.689Z,20.3
2017-06-08T11:52:06.460Z,20.3
2017-06-08T11:53:10.187Z,20.3
2017-06-08T11:54:12.068Z,20.3
2017-06-08T11:55:14.899Z,20.3
2017-06-08T11:56:18.288Z,20.4
2017-06-08T11:57:21.173Z,20.4
2017-06-08T11:58:24.313Z,20.3
2017-06-08T11:59:26.734Z,20.3
2017-06-08T12:00:29.621Z,20.3
2017-06-08T12:01:32.509Z,20.5
2017-06-08T12:02:35.399Z,20.6
2017-06-08T12:03:38.918Z,20.5
2017-06-08T12:05:44.217Z,20.5
2017-06-08T12:06:47.105Z,20.5
2017-06-08T12:08:53.655Z,20.5
2017-06-08T12:10:58.831Z,20.5
2017-06-08T12:12:01.718Z,20.5
2017-06-08T12:14:08.320Z,20.5
2017-06-08T12:15:10.591Z,20.5
2017-06-08T12:16:13.476Z,20.5
2017-06-08T12:18:19.273Z,20.5
2017-06-08T12:19:22.800Z,20.5
2017-06-08T12:20:25.186Z,20.4
2017-06-08T12:21:28.107Z,20.4
2017-06-08T12:22:30.997Z,20.3
2017-06-08T12:25:40.519Z,20.2
2017-06-08T12:27:45.821Z,20.3
2017-06-08T12:28:48.716Z,20.3
2017-06-08T12:30:54.651Z,20.3
2017-06-08T12:33:00.460Z,20.4
2017-06-08T12:35:06.257Z,20.5
2017-06-08T12:37:12.184Z,20.5
2017-06-08T12:38:15.071Z,20.5
2017-06-08T12:40:20.637Z,20.5
2017-06-08T12:42:26.957Z,20.5
2017-06-08T12:43:29.724Z,20.5
2017-06-08T12:44:32.617Z,20.5
2017-06-08T12:45:35.512Z,20.5
2017-06-08T12:46:38.404Z,20.5
2017-06-08T12:48:44.452Z,20.6
2017-06-08T12:49:47.341Z,20.6
2017-06-08T12:50:50.227Z,20.6
2017-06-08T12:51:53.112Z,20.5
2017-06-08T12:55:02.126Z,20.5
2017-06-08T12:56:04.520Z,20.6
2017-06-08T12:57:07.794Z,20.5
2017-06-08T12:58:10.563Z,20.5
2017-06-08T13:00:16.663Z,20.5
2017-06-08T13:01:19.430Z,20.5
2017-06-08T13:03:25.236Z,20.4
2017-06-08T13:05:31.338Z,20.4
2017-06-08T13:06:33.725Z,20.4
2017-06-08T13:08:39.903Z,20.3
2017-06-08T13:09:42.792Z,20.3
2017-06-08T13:10:45.937Z,20.3
2017-06-08T13:11:48.317Z,20.3
2017-06-08T13:12:51.205Z,20.3
2017-06-08T13:13:54.164Z,20.3
2017-06-08T13:14:57.053Z,20.3
2017-06-08T13:16:00.193Z,20.3
2017-06-08T13:17:03.083Z,20.3
2017-06-08T13:18:05.966Z,20.3
2017-06-08T13:19:08.733Z,20.3
2017-06-08T13:20:11.625Z,20.4
2017-06-08T13:21:14.813Z,20.4
2017-06-08T13:24:23.532Z,20.4
2017-06-08T13:25:26.420Z,20.4
2017-06-08T13:28:35.385Z,20.3
2017-06-08T13:29:37.649Z,20.3
2017-06-08T13:31:43.953Z,20.3
2017-06-08T13:32:47.415Z,20.3
2017-06-08T13:33:49.598Z,20.3
2017-06-08T13:34:52.482Z,20.3
2017-06-08T13:35:55.366Z,20.3
2017-06-08T13:36:58.267Z,20.3
2017-06-08T13:40:07.282Z,20.3
2017-06-08T13:41:09.668Z,20.3
2017-06-08T13:42:12.559Z,20.3
2017-06-08T13:44:18.359Z,20.3
2017-06-08T13:47:27.325Z,20.4
2017-06-08T13:48:30.099Z,20.4
2017-06-08T13:49:32.862Z,20.4
2017-06-08T13:50:35.755Z,20.4
2017-06-08T13:53:44.718Z,20.5
2017-06-08T13:56:53.426Z,20.5
2017-06-08T13:57:56.313Z,20.4
2017-06-08T13:58:59.388Z,20.4
2017-06-08T14:00:02.285Z,20.4
2017-06-08T14:01:04.671Z,20.4
2017-06-08T14:02:07.939Z,20.4
2017-06-08T14:03:10.824Z,20.3
2017-06-08T14:04:13.967Z,20.3
2017-06-08T14:05:16.354Z,20.3
2017-06-08T14:06:19.242Z,20.3
2017-06-08T14:07:22.128Z,20.3
2017-06-08T14:08:25.020Z,20.3
2017-06-08T14:11:33.988Z,20.3
2017-06-08T14:12:36.876Z,20.3
2017-06-08T14:13:39.760Z,20.3
2017-06-08T14:14:42.642Z,20.3
2017-06-08T14:17:51.607Z,20.4
2017-06-08T14:19:56.781Z,20.4
2017-06-08T14:20:59.664Z,20.4
2017-06-08T14:22:02.552Z,20.4
2017-06-08T14:23:05.707Z,20.4
2017-06-08T14:24:08.593Z,20.4
2017-06-08T14:25:11.479Z,20.4
2017-06-08T14:26:14.366Z,20.4
2017-06-08T14:27:17.131Z,20.3
2017-06-08T14:29:23.186Z,20.4
2017-06-08T14:30:26.074Z,20.4
2017-06-08T14:32:31.867Z,20.4
2017-06-08T14:34:37.970Z,20.4
2017-06-08T14:36:43.274Z,20.4
2017-06-08T14:37:46.161Z,20.4
2017-06-08T14:38:48.925Z,20.4
2017-06-08T14:41:57.766Z,20.5
2017-06-08T14:43:00.649Z,20.5
2017-06-08T14:49:18.379Z,20.5
2017-06-08T14:52:26.581Z,20.6
2017-06-08T14:53:29.349Z,20.6
2017-06-08T14:55:35.445Z,20.5
2017-06-08T14:56:38.333Z,20.5
2017-06-08T14:57:41.098Z,20.5
2017-06-08T14:59:46.782Z,20.5
2017-06-08T15:00:49.920Z,20.5
2017-06-08T15:01:52.306Z,20.5
2017-06-08T15:02:55.193Z,20.6
2017-06-08T15:05:00.994Z,20.5
2017-06-08T15:08:09.958Z,20.5
2017-06-08T15:10:15.759Z,20.5
2017-06-08T15:11:18.646Z,20.5
2017-06-08T15:12:21.537Z,20.5
2017-06-08T15:13:24.561Z,20.5
2017-06-08T15:14:26.943Z,20.5
2017-06-08T15:16:32.743Z,20.5
2017-06-08T15:17:35.626Z,20.5
2017-06-08T15:18:38.647Z,20.5
2017-06-08T15:19:41.529Z,20.5
2017-06-08T15:21:47.209Z,20.5
2017-06-08T15:22:50.028Z,20.5
2017-06-08T15:23:53.174Z,20.5
2017-06-08T15:25:58.850Z,20.5
2017-06-08T15:27:01.741Z,20.5
2017-06-08T15:28:04.636Z,20.5
2017-06-08T15:29:07.776Z,20.5
2017-06-08T15:30:10.540Z,20.5
2017-06-08T15:31:13.430Z,20.5
2017-06-08T15:32:16.318Z,20.6
2017-06-08T15:34:22.368Z,20.6
2017-06-08T15:35:24.756Z,20.6
2017-06-08T15:36:27.644Z,20.6
2017-06-08T15:40:39.517Z,20.6
2017-06-08T15:42:45.326Z,20.5
2017-06-08T15:44:51.004Z,20.5
2017-06-08T15:45:54.193Z,20.5
2017-06-08T15:46:56.458Z,20.5
2017-06-08T15:47:59.347Z,20.5
2017-06-08T15:49:02.236Z,20.6
2017-06-08T15:50:05.009Z,20.6
2017-06-08T15:52:11.613Z,20.5
2017-06-08T15:54:16.790Z,20.5
2017-06-08T15:55:19.435Z,20.5
2017-06-08T15:56:22.712Z,20.5
2017-06-08T15:57:25.848Z,20.5
2017-06-08T15:58:28.234Z,20.5
2017-06-08T15:59:31.119Z,20.5
2017-06-08T16:00:33.908Z,20.5
2017-06-08T16:01:36.800Z,20.5
2017-06-08T16:04:45.762Z,20.6
2017-06-08T16:06:51.560Z,20.6
2017-06-08T16:07:54.446Z,20.6
2017-06-08T16:08:57.346Z,20.6
2017-06-08T16:10:00.540Z,20.6
2017-06-08T16:11:02.927Z,20.7
2017-06-08T16:12:05.817Z,20.7
2017-06-08T16:13:08.581Z,20.7
2017-06-08T16:14:11.347Z,20.7
2017-06-08T16:15:14.989Z,20.6
2017-06-08T16:16:17.370Z,20.6
2017-06-08T16:18:23.175Z,20.6
2017-06-08T16:19:26.065Z,20.6
2017-06-08T16:20:29.203Z,20.6
2017-06-08T16:21:32.119Z,20.6
2017-06-08T16:22:34.380Z,20.6
2017-06-08T16:23:37.771Z,20.7
2017-06-08T16:24:40.658Z,20.7
2017-06-08T16:25:43.849Z,20.7
2017-06-08T16:27:49.146Z,20.8
2017-06-08T16:29:54.712Z,20.8
2017-06-08T16:33:04.060Z,20.8
2017-06-08T16:34:06.443Z,20.8
2017-06-08T16:35:09.209Z,20.7
2017-06-08T16:37:15.010Z,20.7
2017-06-08T16:39:21.069Z,20.7
2017-06-08T16:40:23.956Z,20.7
2017-06-08T16:41:26.851Z,20.7
2017-06-08T16:42:29.741Z,20.7
2017-06-08T16:43:32.631Z,20.7
2017-06-08T16:44:35.706Z,20.7
2017-06-08T16:45:38.090Z,20.7
2017-06-08T16:46:40.977Z,20.7
2017-06-08T16:47:44.243Z,20.7
2017-06-08T16:49:50.293Z,20.7
2017-06-08T16:50:52.694Z,20.8
2017-06-08T16:51:55.588Z,20.8
2017-06-08T16:52:58.358Z,20.7
2017-06-08T16:56:07.896Z,20.7
2017-06-08T16:57:10.283Z,20.7
2017-06-08T16:58:13.052Z,20.7
2017-06-08T16:59:15.945Z,20.6
2017-06-08T17:00:18.837Z,20.7
2017-06-08T17:01:21.978Z,20.7
2017-06-08T17:02:24.366Z,20.7
2017-06-08T17:03:27.256Z,20.6
2017-06-08T17:05:33.632Z,20.7
2017-06-08T17:08:42.085Z,20.8
2017-06-08T17:09:44.464Z,20.7
2017-06-08T17:10:47.364Z,20.7
2017-06-08T17:11:50.133Z,20.7
2017-06-08T17:12:53.167Z,20.7
2017-06-08T17:13:56.411Z,20.7
2017-06-08T17:16:02.096Z,20.7
2017-06-08T17:17:04.762Z,20.6
2017-06-08T17:18:07.647Z,20.6
2017-06-08T17:19:10.741Z,20.6
2017-06-08T17:20:13.371Z,20.6
2017-06-08T17:21:16.134Z,20.6
2017-06-08T17:22:19.192Z,20.6
2017-06-08T17:23:22.165Z,20.6
2017-06-08T17:24:26.043Z,20.6
2017-06-08T17:26:30.909Z,20.6
2017-06-08T17:27:33.575Z,20.6
2017-06-08T17:28:36.547Z,20.6
2017-06-08T17:29:39.694Z,20.6
2017-06-08T17:30:42.364Z,20.6
2017-06-08T17:31:45.348Z,20.6
2017-06-08T17:32:48.147Z,20.6
2017-06-08T17:33:50.883Z,20.6
2017-06-08T17:34:54.105Z,20.6
2017-06-08T17:35:56.661Z,20.6
2017-06-08T17:36:59.715Z,20.6
2017-06-08T17:38:02.377Z,20.6
2017-06-08T17:39:05.473Z,20.6
2017-06-08T17:41:11.552Z,20.6
2017-06-08T17:42:13.986Z,20.6
2017-06-08T17:44:20.131Z,20.6
2017-06-08T17:46:25.935Z,20.6
2017-06-08T17:47:28.598Z,20.6
2017-06-08T17:48:31.254Z,20.6
2017-06-08T17:49:34.219Z,20.6
2017-06-08T17:50:37.082Z,20.6
2017-06-08T17:51:40.066Z,20.6
2017-06-08T17:54:48.796Z,20.6
2017-06-08T17:55:51.453Z,20.6
2017-06-08T17:56:54.871Z,20.6
2017-06-08T17:57:57.340Z,20.6
2017-06-08T17:59:00.195Z,20.6
2017-06-08T18:01:05.962Z,20.6
2017-06-08T18:02:09.080Z,20.6
2017-06-08T18:03:11.633Z,20.6
2017-06-08T18:04:14.569Z,20.6
2017-06-08T18:05:17.518Z,20.6
2017-06-08T18:06:20.740Z,20.6
2017-06-08T18:07:23.502Z,20.6
2017-06-08T18:08:26.087Z,20.6
2017-06-08T18:09:28.806Z,20.6
2017-06-08T19:49:01.487Z,20.1
2017-06-08T19:51:07.457Z,20.1
2017-06-08T19:52:10.384Z,20.1
2017-06-08T19:53:13.065Z,20.1
2017-06-08T19:54:15.818Z,20.1
2017-06-08T19:55:18.576Z,20.1
2017-06-08T19:56:21.563Z,20.1
2017-06-08T19:59:30.683Z,20.1
2017-06-08T20:00:33.011Z,20.1
2017-06-08T20:02:38.878Z,20.1
2017-06-08T20:03:41.638Z,20.1
2017-06-08T20:04:45.047Z,20.1
2017-06-08T20:05:47.327Z,20.1
2017-06-08T20:07:53.074Z,20.1
2017-06-08T20:09:58.730Z,20.1
2017-06-08T20:11:01.680Z,20.1
2017-06-08T20:13:07.450Z,20.1